sensor_id;sensor_type;location;lat;lon;timestamp;P1;durP1;ratioP1;P2;durP2;ratioP2
36651;SDS011;53334;51.976;20.144;2023-12-07T00:01:42;22.45;;;17.40;;
36651;SDS011;53334;51.976;20.144;2023-12-07T00:04:17;20.05;;;15.30;;
36651;SDS011;53334;51.976;20.144;2023-12-07T00:06:50;20.65;;;16.23;;
36651;SDS011;53334;51.976;20.144;2023-12-07T00:09:24;25.08;;;17.52;;
36651;SDS011;53334;51.976;20.144;2023-12-07T00:11:57;21.77;;;16.88;;
36651;SDS011;53334;51.976;20.144;2023-12-07T00:17:06;20.38;;;15.38;;
36651;SDS011;53334;51.976;20.144;2023-12-07T00:19:41;21.65;;;16.25;;
36651;SDS011;53334;51.976;20.144;2023-12-07T00:22:14;21.13;;;17.17;;
36651;SDS011;53334;51.976;20.144;2023-12-07T00:24:48;21.40;;;16.95;;
36651;SDS011;53334;51.976;20.144;2023-12-07T00:27:22;19.20;;;15.35;;
36651;SDS011;53334;51.976;20.144;2023-12-07T00:29:56;17.17;;;14.95;;
36651;SDS011;53334;51.976;20.144;2023-12-07T00:32:29;19.13;;;15.32;;
36651;SDS011;53334;51.976;20.144;2023-12-07T00:35:05;21.23;;;17.52;;
36651;SDS011;53334;51.976;20.144;2023-12-07T00:37:40;21.08;;;17.13;;
36651;SDS011;53334;51.976;20.144;2023-12-07T00:40:13;29.70;;;17.58;;
36651;SDS011;53334;51.976;20.144;2023-12-07T00:42:47;25.55;;;17.40;;
36651;SDS011;53334;51.976;20.144;2023-12-07T00:45:20;28.00;;;18.60;;
36651;SDS011;53334;51.976;20.144;2023-12-07T00:47:54;26.85;;;18.40;;
36651;SDS011;53334;51.976;20.144;2023-12-07T00:50:29;24.70;;;17.95;;
36651;SDS011;53334;51.976;20.144;2023-12-07T00:53:03;23.25;;;17.73;;
36651;SDS011;53334;51.976;20.144;2023-12-07T00:55:36;27.27;;;18.63;;
36651;SDS011;53334;51.976;20.144;2023-12-07T00:58:10;24.20;;;18.40;;
36651;SDS011;53334;51.976;20.144;2023-12-07T01:00:44;24.58;;;18.50;;
36651;SDS011;53334;51.976;20.144;2023-12-07T01:03:17;23.77;;;18.40;;
36651;SDS011;53334;51.976;20.144;2023-12-07T01:08:26;23.38;;;16.02;;
36651;SDS011;53334;51.976;20.144;2023-12-07T01:11:00;21.40;;;16.40;;
36651;SDS011;53334;51.976;20.144;2023-12-07T01:13:33;24.25;;;16.85;;
36651;SDS011;53334;51.976;20.144;2023-12-07T01:16:07;23.58;;;17.17;;
36651;SDS011;53334;51.976;20.144;2023-12-07T01:18:41;31.95;;;17.77;;
36651;SDS011;53334;51.976;20.144;2023-12-07T01:21:15;24.70;;;17.85;;
36651;SDS011;53334;51.976;20.144;2023-12-07T01:23:49;23.00;;;17.45;;
36651;SDS011;53334;51.976;20.144;2023-12-07T01:26:36;22.67;;;17.08;;
36651;SDS011;53334;51.976;20.144;2023-12-07T01:29:10;26.60;;;18.52;;
36651;SDS011;53334;51.976;20.144;2023-12-07T01:31:45;22.13;;;17.25;;
36651;SDS011;53334;51.976;20.144;2023-12-07T01:34:18;20.40;;;16.83;;
36651;SDS011;53334;51.976;20.144;2023-12-07T01:36:53;20.20;;;15.80;;
36651;SDS011;53334;51.976;20.144;2023-12-07T01:39:27;26.90;;;18.40;;
36651;SDS011;53334;51.976;20.144;2023-12-07T01:42:00;21.35;;;17.58;;
36651;SDS011;53334;51.976;20.144;2023-12-07T01:44:33;22.75;;;17.58;;
36651;SDS011;53334;51.976;20.144;2023-12-07T01:47:07;22.63;;;17.13;;
36651;SDS011;53334;51.976;20.144;2023-12-07T01:49:42;22.52;;;16.25;;
36651;SDS011;53334;51.976;20.144;2023-12-07T01:52:17;21.33;;;16.73;;
36651;SDS011;53334;51.976;20.144;2023-12-07T01:54:51;20.73;;;16.55;;
36651;SDS011;53334;51.976;20.144;2023-12-07T01:57:24;23.13;;;18.02;;
36651;SDS011;53334;51.976;20.144;2023-12-07T01:59:58;23.60;;;17.65;;
36651;SDS011;53334;51.976;20.144;2023-12-07T02:02:31;22.65;;;18.05;;
36651;SDS011;53334;51.976;20.144;2023-12-07T02:07:40;21.77;;;17.55;;
36651;SDS011;53334;51.976;20.144;2023-12-07T02:10:14;20.35;;;16.50;;
36651;SDS011;53334;51.976;20.144;2023-12-07T02:15:21;22.80;;;16.63;;
36651;SDS011;53334;51.976;20.144;2023-12-07T02:17:57;23.67;;;16.88;;
36651;SDS011;53334;51.976;20.144;2023-12-07T02:20:36;23.58;;;17.88;;
36651;SDS011;53334;51.976;20.144;2023-12-07T02:23:16;24.55;;;18.10;;
36651;SDS011;53334;51.976;20.144;2023-12-07T02:26:10;27.95;;;17.75;;
36651;SDS011;53334;51.976;20.144;2023-12-07T02:28:47;23.95;;;17.95;;
36651;SDS011;53334;51.976;20.144;2023-12-07T02:31:20;20.77;;;16.40;;
36651;SDS011;53334;51.976;20.144;2023-12-07T02:33:54;24.45;;;16.30;;
36651;SDS011;53334;51.976;20.144;2023-12-07T02:36:27;23.38;;;17.73;;
36651;SDS011;53334;51.976;20.144;2023-12-07T02:39:05;20.15;;;16.45;;
36651;SDS011;53334;51.976;20.144;2023-12-07T02:41:40;21.88;;;16.92;;
36651;SDS011;53334;51.976;20.144;2023-12-07T02:44:17;25.05;;;17.52;;
36651;SDS011;53334;51.976;20.144;2023-12-07T02:46:50;20.48;;;16.23;;
36651;SDS011;53334;51.976;20.144;2023-12-07T02:49:23;23.67;;;17.80;;
36651;SDS011;53334;51.976;20.144;2023-12-07T02:51:57;21.52;;;17.08;;
36651;SDS011;53334;51.976;20.144;2023-12-07T02:54:31;21.70;;;16.30;;
36651;SDS011;53334;51.976;20.144;2023-12-07T02:57:04;23.08;;;17.00;;
36651;SDS011;53334;51.976;20.144;2023-12-07T02:59:39;20.85;;;16.17;;
36651;SDS011;53334;51.976;20.144;2023-12-07T03:02:12;23.25;;;16.42;;
36651;SDS011;53334;51.976;20.144;2023-12-07T03:04:46;20.50;;;16.42;;
36651;SDS011;53334;51.976;20.144;2023-12-07T03:09:53;19.63;;;16.00;;
36651;SDS011;53334;51.976;20.144;2023-12-07T03:12:26;24.50;;;17.85;;
36651;SDS011;53334;51.976;20.144;2023-12-07T03:15:01;19.75;;;15.35;;
36651;SDS011;53334;51.976;20.144;2023-12-07T03:17:34;24.17;;;17.33;;
36651;SDS011;53334;51.976;20.144;2023-12-07T03:20:07;19.67;;;15.55;;
36651;SDS011;53334;51.976;20.144;2023-12-07T03:22:41;22.95;;;17.17;;
36651;SDS011;53334;51.976;20.144;2023-12-07T03:25:15;22.45;;;15.60;;
36651;SDS011;53334;51.976;20.144;2023-12-07T03:27:48;20.88;;;16.20;;
36651;SDS011;53334;51.976;20.144;2023-12-07T03:30:23;22.33;;;16.92;;
36651;SDS011;53334;51.976;20.144;2023-12-07T03:32:56;22.85;;;17.08;;
36651;SDS011;53334;51.976;20.144;2023-12-07T03:35:29;24.73;;;16.33;;
36651;SDS011;53334;51.976;20.144;2023-12-07T03:38:03;21.15;;;17.20;;
36651;SDS011;53334;51.976;20.144;2023-12-07T03:40:36;22.60;;;16.77;;
36651;SDS011;53334;51.976;20.144;2023-12-07T03:43:10;21.17;;;16.70;;
36651;SDS011;53334;51.976;20.144;2023-12-07T03:45:46;21.42;;;16.42;;
36651;SDS011;53334;51.976;20.144;2023-12-07T03:48:20;22.55;;;16.13;;
36651;SDS011;53334;51.976;20.144;2023-12-07T03:50:53;21.58;;;16.02;;
36651;SDS011;53334;51.976;20.144;2023-12-07T03:53:27;19.33;;;15.27;;
36651;SDS011;53334;51.976;20.144;2023-12-07T03:58:34;22.17;;;16.77;;
36651;SDS011;53334;51.976;20.144;2023-12-07T04:01:08;19.27;;;15.77;;
36651;SDS011;53334;51.976;20.144;2023-12-07T04:03:42;18.98;;;14.88;;
36651;SDS011;53334;51.976;20.144;2023-12-07T04:06:15;26.50;;;17.25;;
36651;SDS011;53334;51.976;20.144;2023-12-07T04:08:49;22.13;;;16.45;;
36651;SDS011;53334;51.976;20.144;2023-12-07T04:11:23;21.52;;;15.55;;
36651;SDS011;53334;51.976;20.144;2023-12-07T04:13:56;21.67;;;15.70;;
36651;SDS011;53334;51.976;20.144;2023-12-07T04:16:31;19.73;;;15.13;;
36651;SDS011;53334;51.976;20.144;2023-12-07T04:19:04;23.33;;;15.25;;
36651;SDS011;53334;51.976;20.144;2023-12-07T04:21:38;19.50;;;15.55;;
36651;SDS011;53334;51.976;20.144;2023-12-07T04:24:11;18.55;;;14.38;;
36651;SDS011;53334;51.976;20.144;2023-12-07T04:26:44;19.67;;;16.10;;
36651;SDS011;53334;51.976;20.144;2023-12-07T04:29:18;20.65;;;15.57;;
36651;SDS011;53334;51.976;20.144;2023-12-07T04:31:53;19.92;;;15.63;;
36651;SDS011;53334;51.976;20.144;2023-12-07T04:34:26;19.40;;;15.82;;
36651;SDS011;53334;51.976;20.144;2023-12-07T04:36:59;22.48;;;15.52;;
36651;SDS011;53334;51.976;20.144;2023-12-07T04:39:32;18.10;;;14.90;;
36651;SDS011;53334;51.976;20.144;2023-12-07T04:42:06;16.83;;;14.45;;
36651;SDS011;53334;51.976;20.144;2023-12-07T04:44:39;20.02;;;15.43;;
36651;SDS011;53334;51.976;20.144;2023-12-07T04:47:15;18.40;;;14.65;;
36651;SDS011;53334;51.976;20.144;2023-12-07T04:49:48;23.40;;;16.48;;
36651;SDS011;53334;51.976;20.144;2023-12-07T04:52:23;18.90;;;15.02;;
36651;SDS011;53334;51.976;20.144;2023-12-07T04:54:57;20.85;;;16.02;;
36651;SDS011;53334;51.976;20.144;2023-12-07T04:57:31;20.58;;;15.93;;
36651;SDS011;53334;51.976;20.144;2023-12-07T05:02:42;21.73;;;15.68;;
36651;SDS011;53334;51.976;20.144;2023-12-07T05:05:15;23.42;;;16.27;;
36651;SDS011;53334;51.976;20.144;2023-12-07T05:07:49;27.23;;;17.75;;
36651;SDS011;53334;51.976;20.144;2023-12-07T05:10:22;28.75;;;19.60;;
36651;SDS011;53334;51.976;20.144;2023-12-07T05:12:55;87.68;;;43.47;;
36651;SDS011;53334;51.976;20.144;2023-12-07T05:15:29;67.28;;;35.63;;
36651;SDS011;53334;51.976;20.144;2023-12-07T05:18:04;66.32;;;36.05;;
36651;SDS011;53334;51.976;20.144;2023-12-07T05:20:37;70.55;;;36.83;;
36651;SDS011;53334;51.976;20.144;2023-12-07T05:23:11;67.43;;;33.72;;
36651;SDS011;53334;51.976;20.144;2023-12-07T05:25:44;60.65;;;33.72;;
36651;SDS011;53334;51.976;20.144;2023-12-07T05:28:18;56.33;;;31.00;;
36651;SDS011;53334;51.976;20.144;2023-12-07T05:30:52;44.30;;;28.45;;
36651;SDS011;53334;51.976;20.144;2023-12-07T05:33:26;50.53;;;28.23;;
36651;SDS011;53334;51.976;20.144;2023-12-07T05:36:00;48.00;;;28.13;;
36651;SDS011;53334;51.976;20.144;2023-12-07T05:38:35;48.83;;;27.98;;
36651;SDS011;53334;51.976;20.144;2023-12-07T05:41:08;45.13;;;28.08;;
36651;SDS011;53334;51.976;20.144;2023-12-07T05:43:44;41.55;;;25.85;;
36651;SDS011;53334;51.976;20.144;2023-12-07T05:46:17;39.25;;;24.23;;
36651;SDS011;53334;51.976;20.144;2023-12-07T05:48:52;44.80;;;25.95;;
36651;SDS011;53334;51.976;20.144;2023-12-07T05:51:28;44.83;;;26.90;;
36651;SDS011;53334;51.976;20.144;2023-12-07T05:54:01;36.53;;;23.42;;
36651;SDS011;53334;51.976;20.144;2023-12-07T05:56:34;44.40;;;24.35;;
36651;SDS011;53334;51.976;20.144;2023-12-07T05:59:08;39.97;;;24.77;;
36651;SDS011;53334;51.976;20.144;2023-12-07T06:01:41;35.92;;;24.25;;
36651;SDS011;53334;51.976;20.144;2023-12-07T06:04:17;40.88;;;24.90;;
36651;SDS011;53334;51.976;20.144;2023-12-07T06:06:51;39.08;;;24.00;;
36651;SDS011;53334;51.976;20.144;2023-12-07T06:09:24;39.70;;;24.55;;
36651;SDS011;53334;51.976;20.144;2023-12-07T06:11:57;35.55;;;22.58;;
36651;SDS011;53334;51.976;20.144;2023-12-07T06:14:31;35.47;;;22.83;;
36651;SDS011;53334;51.976;20.144;2023-12-07T06:17:05;39.10;;;24.60;;
36651;SDS011;53334;51.976;20.144;2023-12-07T06:19:41;34.35;;;21.63;;
36651;SDS011;53334;51.976;20.144;2023-12-07T06:22:14;33.47;;;20.63;;
36651;SDS011;53334;51.976;20.144;2023-12-07T06:24:48;33.28;;;21.55;;
36651;SDS011;53334;51.976;20.144;2023-12-07T06:27:21;33.63;;;21.85;;
36651;SDS011;53334;51.976;20.144;2023-12-07T06:29:54;35.00;;;22.13;;
36651;SDS011;53334;51.976;20.144;2023-12-07T06:32:28;28.05;;;20.05;;
36651;SDS011;53334;51.976;20.144;2023-12-07T06:35:03;35.83;;;22.75;;
36651;SDS011;53334;51.976;20.144;2023-12-07T06:37:37;35.40;;;21.88;;
36651;SDS011;53334;51.976;20.144;2023-12-07T06:40:13;39.33;;;23.02;;
36651;SDS011;53334;51.976;20.144;2023-12-07T06:42:46;34.30;;;22.50;;
36651;SDS011;53334;51.976;20.144;2023-12-07T06:45:19;31.70;;;20.38;;
36651;SDS011;53334;51.976;20.144;2023-12-07T06:47:53;33.83;;;21.42;;
36651;SDS011;53334;51.976;20.144;2023-12-07T06:50:27;31.27;;;20.77;;
36651;SDS011;53334;51.976;20.144;2023-12-07T06:53:01;26.90;;;19.40;;
36651;SDS011;53334;51.976;20.144;2023-12-07T06:55:34;34.53;;;21.55;;
36651;SDS011;53334;51.976;20.144;2023-12-07T06:58:14;28.20;;;18.75;;
36651;SDS011;53334;51.976;20.144;2023-12-07T07:00:47;31.15;;;19.20;;
36651;SDS011;53334;51.976;20.144;2023-12-07T07:03:20;27.83;;;18.58;;
36651;SDS011;53334;51.976;20.144;2023-12-07T07:08:31;26.92;;;19.33;;
36651;SDS011;53334;51.976;20.144;2023-12-07T07:11:09;31.00;;;19.98;;
36651;SDS011;53334;51.976;20.144;2023-12-07T07:13:44;31.83;;;20.13;;
36651;SDS011;53334;51.976;20.144;2023-12-07T07:16:17;32.17;;;19.98;;
36651;SDS011;53334;51.976;20.144;2023-12-07T07:18:51;27.08;;;19.73;;
36651;SDS011;53334;51.976;20.144;2023-12-07T07:21:26;29.38;;;19.73;;
36651;SDS011;53334;51.976;20.144;2023-12-07T07:23:59;33.08;;;20.63;;
36651;SDS011;53334;51.976;20.144;2023-12-07T07:26:33;29.05;;;19.30;;
36651;SDS011;53334;51.976;20.144;2023-12-07T07:29:06;38.22;;;20.00;;
36651;SDS011;53334;51.976;20.144;2023-12-07T07:31:40;35.17;;;20.13;;
36651;SDS011;53334;51.976;20.144;2023-12-07T07:34:13;31.02;;;20.38;;
36651;SDS011;53334;51.976;20.144;2023-12-07T07:36:48;33.65;;;20.58;;
36651;SDS011;53334;51.976;20.144;2023-12-07T07:39:22;33.42;;;18.80;;
36651;SDS011;53334;51.976;20.144;2023-12-07T07:41:55;33.45;;;19.60;;
36651;SDS011;53334;51.976;20.144;2023-12-07T07:44:29;29.90;;;18.50;;
36651;SDS011;53334;51.976;20.144;2023-12-07T07:47:02;36.53;;;21.23;;
36651;SDS011;53334;51.976;20.144;2023-12-07T07:49:36;31.02;;;18.52;;
36651;SDS011;53334;51.976;20.144;2023-12-07T07:52:12;37.17;;;20.52;;
36651;SDS011;53334;51.976;20.144;2023-12-07T07:54:45;33.28;;;19.33;;
36651;SDS011;53334;51.976;20.144;2023-12-07T07:57:18;35.85;;;19.88;;
36651;SDS011;53334;51.976;20.144;2023-12-07T07:59:52;30.60;;;19.63;;
36651;SDS011;53334;51.976;20.144;2023-12-07T08:02:25;27.20;;;19.38;;
36651;SDS011;53334;51.976;20.144;2023-12-07T08:04:58;29.88;;;18.80;;
36651;SDS011;53334;51.976;20.144;2023-12-07T08:07:33;28.33;;;17.50;;
36651;SDS011;53334;51.976;20.144;2023-12-07T08:10:07;31.63;;;19.50;;
36651;SDS011;53334;51.976;20.144;2023-12-07T08:12:41;29.77;;;18.90;;
36651;SDS011;53334;51.976;20.144;2023-12-07T08:15:14;31.60;;;18.48;;
36651;SDS011;53334;51.976;20.144;2023-12-07T08:17:48;26.27;;;18.05;;
36651;SDS011;53334;51.976;20.144;2023-12-07T08:20:22;27.05;;;17.48;;
36651;SDS011;53334;51.976;20.144;2023-12-07T08:22:57;46.40;;;30.27;;
36651;SDS011;53334;51.976;20.144;2023-12-07T08:25:31;53.78;;;34.15;;
36651;SDS011;53334;51.976;20.144;2023-12-07T08:28:05;44.38;;;30.45;;
36651;SDS011;53334;51.976;20.144;2023-12-07T08:30:41;40.28;;;26.02;;
36651;SDS011;53334;51.976;20.144;2023-12-07T08:33:14;40.83;;;27.17;;
36651;SDS011;53334;51.976;20.144;2023-12-07T08:35:47;36.90;;;25.15;;
36651;SDS011;53334;51.976;20.144;2023-12-07T08:38:27;32.63;;;23.25;;
36651;SDS011;53334;51.976;20.144;2023-12-07T08:41:00;31.58;;;21.27;;
36651;SDS011;53334;51.976;20.144;2023-12-07T08:43:34;29.83;;;22.45;;
36651;SDS011;53334;51.976;20.144;2023-12-07T08:46:07;39.53;;;23.42;;
36651;SDS011;53334;51.976;20.144;2023-12-07T08:48:41;30.55;;;21.45;;
36651;SDS011;53334;51.976;20.144;2023-12-07T08:51:14;36.20;;;24.45;;
36651;SDS011;53334;51.976;20.144;2023-12-07T08:53:49;32.88;;;22.27;;
36651;SDS011;53334;51.976;20.144;2023-12-07T08:56:25;38.00;;;24.15;;
36651;SDS011;53334;51.976;20.144;2023-12-07T08:58:58;30.13;;;22.20;;
36651;SDS011;53334;51.976;20.144;2023-12-07T09:01:31;31.48;;;21.35;;
36651;SDS011;53334;51.976;20.144;2023-12-07T09:04:05;27.17;;;19.38;;
36651;SDS011;53334;51.976;20.144;2023-12-07T09:06:39;29.33;;;19.17;;
36651;SDS011;53334;51.976;20.144;2023-12-07T09:09:14;25.15;;;17.17;;
36651;SDS011;53334;51.976;20.144;2023-12-07T09:11:47;29.40;;;21.00;;
36651;SDS011;53334;51.976;20.144;2023-12-07T09:16:54;24.55;;;18.85;;
36651;SDS011;53334;51.976;20.144;2023-12-07T09:19:27;26.40;;;19.33;;
36651;SDS011;53334;51.976;20.144;2023-12-07T09:22:00;28.88;;;20.77;;
36651;SDS011;53334;51.976;20.144;2023-12-07T09:24:35;25.27;;;16.98;;
36651;SDS011;53334;51.976;20.144;2023-12-07T09:27:08;28.30;;;19.00;;
36651;SDS011;53334;51.976;20.144;2023-12-07T09:29:43;26.02;;;18.50;;
36651;SDS011;53334;51.976;20.144;2023-12-07T09:32:16;26.08;;;19.75;;
36651;SDS011;53334;51.976;20.144;2023-12-07T09:35:00;26.52;;;18.52;;
36651;SDS011;53334;51.976;20.144;2023-12-07T09:37:33;23.67;;;18.05;;
36651;SDS011;53334;51.976;20.144;2023-12-07T09:42:47;29.58;;;20.63;;
36651;SDS011;53334;51.976;20.144;2023-12-07T09:45:21;26.92;;;19.55;;
36651;SDS011;53334;51.976;20.144;2023-12-07T09:47:57;30.45;;;20.00;;
36651;SDS011;53334;51.976;20.144;2023-12-07T09:50:33;25.67;;;19.02;;
36651;SDS011;53334;51.976;20.144;2023-12-07T09:53:07;24.10;;;18.33;;
36651;SDS011;53334;51.976;20.144;2023-12-07T09:55:43;27.98;;;19.85;;
36651;SDS011;53334;51.976;20.144;2023-12-07T09:58:16;27.30;;;18.88;;
36651;SDS011;53334;51.976;20.144;2023-12-07T10:01:02;26.38;;;19.73;;
36651;SDS011;53334;51.976;20.144;2023-12-07T10:03:36;27.38;;;18.40;;
36651;SDS011;53334;51.976;20.144;2023-12-07T10:06:10;25.95;;;19.65;;
36651;SDS011;53334;51.976;20.144;2023-12-07T10:08:43;25.77;;;19.63;;
36651;SDS011;53334;51.976;20.144;2023-12-07T10:11:20;22.75;;;18.67;;
36651;SDS011;53334;51.976;20.144;2023-12-07T10:13:53;23.58;;;17.55;;
36651;SDS011;53334;51.976;20.144;2023-12-07T10:16:27;26.10;;;19.25;;
36651;SDS011;53334;51.976;20.144;2023-12-07T10:19:05;26.75;;;19.92;;
36651;SDS011;53334;51.976;20.144;2023-12-07T10:22:12;35.45;;;24.00;;
36651;SDS011;53334;51.976;20.144;2023-12-07T10:24:46;38.10;;;23.10;;
36651;SDS011;53334;51.976;20.144;2023-12-07T10:29:55;32.70;;;23.67;;
36651;SDS011;53334;51.976;20.144;2023-12-07T10:32:30;32.58;;;23.05;;
36651;SDS011;53334;51.976;20.144;2023-12-07T10:35:04;32.78;;;23.98;;
36651;SDS011;53334;51.976;20.144;2023-12-07T10:37:40;39.05;;;23.25;;
36651;SDS011;53334;51.976;20.144;2023-12-07T10:40:13;37.75;;;24.98;;
36651;SDS011;53334;51.976;20.144;2023-12-07T10:42:48;31.65;;;23.10;;
36651;SDS011;53334;51.976;20.144;2023-12-07T10:45:28;41.55;;;24.55;;
36651;SDS011;53334;51.976;20.144;2023-12-07T10:48:03;38.17;;;22.65;;
36651;SDS011;53334;51.976;20.144;2023-12-07T10:50:40;37.70;;;24.60;;
36651;SDS011;53334;51.976;20.144;2023-12-07T10:53:19;34.58;;;22.52;;
36651;SDS011;53334;51.976;20.144;2023-12-07T10:55:55;28.35;;;21.95;;
36651;SDS011;53334;51.976;20.144;2023-12-07T10:58:31;32.30;;;22.20;;
36651;SDS011;53334;51.976;20.144;2023-12-07T11:01:08;29.63;;;21.67;;
36651;SDS011;53334;51.976;20.144;2023-12-07T11:03:43;31.10;;;19.60;;
36651;SDS011;53334;51.976;20.144;2023-12-07T11:06:17;33.47;;;20.15;;
36651;SDS011;53334;51.976;20.144;2023-12-07T11:08:51;31.50;;;19.58;;
36651;SDS011;53334;51.976;20.144;2023-12-07T11:11:29;33.75;;;20.35;;
36651;SDS011;53334;51.976;20.144;2023-12-07T11:14:09;34.25;;;20.38;;
36651;SDS011;53334;51.976;20.144;2023-12-07T11:16:45;28.95;;;19.88;;
36651;SDS011;53334;51.976;20.144;2023-12-07T11:19:43;26.17;;;18.65;;
36651;SDS011;53334;51.976;20.144;2023-12-07T11:22:17;28.15;;;19.48;;
36651;SDS011;53334;51.976;20.144;2023-12-07T11:24:53;25.63;;;18.33;;
36651;SDS011;53334;51.976;20.144;2023-12-07T11:27:29;28.67;;;18.38;;
36651;SDS011;53334;51.976;20.144;2023-12-07T11:30:06;26.15;;;18.08;;
36651;SDS011;53334;51.976;20.144;2023-12-07T11:32:40;28.35;;;18.38;;
36651;SDS011;53334;51.976;20.144;2023-12-07T11:35:14;23.25;;;18.67;;
36651;SDS011;53334;51.976;20.144;2023-12-07T11:40:35;22.35;;;17.75;;
36651;SDS011;53334;51.976;20.144;2023-12-07T11:43:16;21.00;;;17.05;;
36651;SDS011;53334;51.976;20.144;2023-12-07T11:45:51;22.27;;;17.13;;
36651;SDS011;53334;51.976;20.144;2023-12-07T11:48:24;24.50;;;18.10;;
36651;SDS011;53334;51.976;20.144;2023-12-07T11:53:32;20.87;;;16.50;;
36651;SDS011;53334;51.976;20.144;2023-12-07T11:56:07;19.45;;;16.55;;
36651;SDS011;53334;51.976;20.144;2023-12-07T11:58:41;21.38;;;17.05;;
36651;SDS011;53334;51.976;20.144;2023-12-07T12:01:18;21.75;;;16.90;;
36651;SDS011;53334;51.976;20.144;2023-12-07T12:03:53;20.23;;;17.05;;
36651;SDS011;53334;51.976;20.144;2023-12-07T12:06:27;19.02;;;14.35;;
36651;SDS011;53334;51.976;20.144;2023-12-07T12:09:03;21.73;;;17.45;;
36651;SDS011;53334;51.976;20.144;2023-12-07T12:11:38;19.58;;;15.98;;
36651;SDS011;53334;51.976;20.144;2023-12-07T12:14:18;20.52;;;15.50;;
36651;SDS011;53334;51.976;20.144;2023-12-07T12:16:53;22.30;;;17.02;;
36651;SDS011;53334;51.976;20.144;2023-12-07T12:19:28;23.77;;;17.35;;
36651;SDS011;53334;51.976;20.144;2023-12-07T12:22:05;22.25;;;18.25;;
36651;SDS011;53334;51.976;20.144;2023-12-07T12:24:39;23.98;;;18.45;;
36651;SDS011;53334;51.976;20.144;2023-12-07T12:27:13;21.27;;;16.73;;
36651;SDS011;53334;51.976;20.144;2023-12-07T12:29:48;21.73;;;16.83;;
36651;SDS011;53334;51.976;20.144;2023-12-07T12:32:23;19.38;;;14.27;;
36651;SDS011;53334;51.976;20.144;2023-12-07T12:34:57;19.33;;;15.23;;
36651;SDS011;53334;51.976;20.144;2023-12-07T12:37:32;19.17;;;15.80;;
36651;SDS011;53334;51.976;20.144;2023-12-07T12:40:05;20.80;;;15.00;;
36651;SDS011;53334;51.976;20.144;2023-12-07T12:42:39;22.13;;;16.70;;
36651;SDS011;53334;51.976;20.144;2023-12-07T12:45:13;18.08;;;14.70;;
36651;SDS011;53334;51.976;20.144;2023-12-07T12:47:48;19.20;;;15.63;;
36651;SDS011;53334;51.976;20.144;2023-12-07T12:50:34;17.98;;;15.27;;
36651;SDS011;53334;51.976;20.144;2023-12-07T12:53:09;18.20;;;14.77;;
36651;SDS011;53334;51.976;20.144;2023-12-07T12:55:42;19.77;;;16.40;;
36651;SDS011;53334;51.976;20.144;2023-12-07T12:58:15;17.45;;;15.27;;
36651;SDS011;53334;51.976;20.144;2023-12-07T13:03:24;18.20;;;15.30;;
36651;SDS011;53334;51.976;20.144;2023-12-07T13:05:57;19.55;;;15.65;;
36651;SDS011;53334;51.976;20.144;2023-12-07T13:08:33;18.15;;;15.85;;
36651;SDS011;53334;51.976;20.144;2023-12-07T13:11:06;20.88;;;16.23;;
36651;SDS011;53334;51.976;20.144;2023-12-07T13:13:40;18.08;;;15.15;;
36651;SDS011;53334;51.976;20.144;2023-12-07T13:16:13;21.75;;;16.85;;
36651;SDS011;53334;51.976;20.144;2023-12-07T13:18:49;22.30;;;15.90;;
36651;SDS011;53334;51.976;20.144;2023-12-07T13:21:23;22.00;;;16.23;;
36651;SDS011;53334;51.976;20.144;2023-12-07T13:23:57;21.58;;;15.95;;
36651;SDS011;53334;51.976;20.144;2023-12-07T13:26:33;18.95;;;15.98;;
36651;SDS011;53334;51.976;20.144;2023-12-07T13:29:07;20.30;;;18.20;;
36651;SDS011;53334;51.976;20.144;2023-12-07T13:31:52;21.85;;;18.08;;
36651;SDS011;53334;51.976;20.144;2023-12-07T13:34:26;24.75;;;18.33;;
36651;SDS011;53334;51.976;20.144;2023-12-07T13:37:00;21.70;;;18.05;;
36651;SDS011;53334;51.976;20.144;2023-12-07T13:39:34;23.60;;;18.83;;
36651;SDS011;53334;51.976;20.144;2023-12-07T13:44:41;24.98;;;19.00;;
36651;SDS011;53334;51.976;20.144;2023-12-07T13:47:16;24.40;;;19.10;;
36651;SDS011;53334;51.976;20.144;2023-12-07T13:49:53;29.85;;;18.60;;
36651;SDS011;53334;51.976;20.144;2023-12-07T13:52:27;21.48;;;17.55;;
36651;SDS011;53334;51.976;20.144;2023-12-07T13:57:34;27.20;;;19.70;;
36651;SDS011;53334;51.976;20.144;2023-12-07T14:00:08;26.48;;;20.23;;
36651;SDS011;53334;51.976;20.144;2023-12-07T14:02:44;27.73;;;18.40;;
36651;SDS011;53334;51.976;20.144;2023-12-07T14:05:19;24.58;;;18.88;;
36651;SDS011;53334;51.976;20.144;2023-12-07T14:07:54;23.02;;;18.25;;
36651;SDS011;53334;51.976;20.144;2023-12-07T14:10:27;21.33;;;17.58;;
36651;SDS011;53334;51.976;20.144;2023-12-07T14:13:03;20.10;;;17.00;;
36651;SDS011;53334;51.976;20.144;2023-12-07T14:15:39;24.95;;;18.17;;
36651;SDS011;53334;51.976;20.144;2023-12-07T14:18:16;25.08;;;18.98;;
36651;SDS011;53334;51.976;20.144;2023-12-07T14:20:51;31.98;;;19.48;;
36651;SDS011;53334;51.976;20.144;2023-12-07T14:23:44;22.77;;;18.17;;
36651;SDS011;53334;51.976;20.144;2023-12-07T14:26:26;21.23;;;16.80;;
36651;SDS011;53334;51.976;20.144;2023-12-07T14:29:00;20.33;;;17.38;;
36651;SDS011;53334;51.976;20.144;2023-12-07T14:31:35;23.50;;;17.85;;
36651;SDS011;53334;51.976;20.144;2023-12-07T14:34:09;23.30;;;17.60;;
36651;SDS011;53334;51.976;20.144;2023-12-07T14:36:49;26.40;;;18.83;;
36651;SDS011;53334;51.976;20.144;2023-12-07T14:39:22;25.45;;;17.98;;
36651;SDS011;53334;51.976;20.144;2023-12-07T14:41:56;28.30;;;17.83;;
36651;SDS011;53334;51.976;20.144;2023-12-07T14:44:30;23.65;;;17.58;;
36651;SDS011;53334;51.976;20.144;2023-12-07T14:47:03;25.60;;;19.75;;
36651;SDS011;53334;51.976;20.144;2023-12-07T14:49:37;27.27;;;18.45;;
36651;SDS011;53334;51.976;20.144;2023-12-07T14:52:13;26.08;;;16.55;;
36651;SDS011;53334;51.976;20.144;2023-12-07T14:54:46;28.88;;;18.35;;
36651;SDS011;53334;51.976;20.144;2023-12-07T14:59:53;22.30;;;17.38;;
36651;SDS011;53334;51.976;20.144;2023-12-07T15:02:29;23.77;;;18.83;;
36651;SDS011;53334;51.976;20.144;2023-12-07T15:05:03;27.00;;;19.02;;
36651;SDS011;53334;51.976;20.144;2023-12-07T15:07:38;24.77;;;17.20;;
36651;SDS011;53334;51.976;20.144;2023-12-07T15:10:11;35.00;;;19.35;;
36651;SDS011;53334;51.976;20.144;2023-12-07T15:12:45;30.88;;;18.25;;
36651;SDS011;53334;51.976;20.144;2023-12-07T15:15:18;28.90;;;18.77;;
36651;SDS011;53334;51.976;20.144;2023-12-07T15:17:52;25.50;;;18.10;;
36651;SDS011;53334;51.976;20.144;2023-12-07T15:20:27;34.20;;;17.73;;
36651;SDS011;53334;51.976;20.144;2023-12-07T15:23:03;22.58;;;16.67;;
36651;SDS011;53334;51.976;20.144;2023-12-07T15:25:37;26.15;;;17.63;;
36651;SDS011;53334;51.976;20.144;2023-12-07T15:28:10;30.15;;;19.35;;
36651;SDS011;53334;51.976;20.144;2023-12-07T15:30:45;23.98;;;17.42;;
36651;SDS011;53334;51.976;20.144;2023-12-07T15:33:19;20.25;;;18.00;;
36651;SDS011;53334;51.976;20.144;2023-12-07T15:35:52;24.10;;;18.20;;